createdAt,value
2023-05-14T00:02:14.075Z,19.10
2023-05-14T00:04:41.211Z,19.10
2023-05-14T00:07:08.272Z,19.10
2023-05-14T00:09:36.103Z,19.10
2023-05-14T00:12:03.222Z,19.10
2023-05-14T00:14:30.409Z,19.20
2023-05-14T00:16:57.431Z,19.20
2023-05-14T00:19:24.544Z,19.10
2023-05-14T00:21:51.753Z,19.10
2023-05-14T00:24:19.088Z,19.00
2023-05-14T00:26:46.009Z,19.10
2023-05-14T00:29:13.006Z,19.10
2023-05-14T00:31:40.039Z,19.10
2023-05-14T00:34:07.230Z,19.20
2023-05-14T00:36:34.296Z,19.20
2023-05-14T00:39:01.258Z,19.10
2023-05-14T00:41:28.467Z,19.10
2023-05-14T00:43:55.434Z,19.20
2023-05-14T00:46:22.860Z,19.30
2023-05-14T00:48:51.096Z,19.20
2023-05-14T00:51:19.241Z,19.20
2023-05-14T00:53:47.474Z,19.20
2023-05-14T00:56:16.007Z,19.20
2023-05-14T00:58:42.999Z,19.20
2023-05-14T01:01:10.340Z,19.10
2023-05-14T01:03:37.584Z,19.00
2023-05-14T01:06:17.473Z,19.00
2023-05-14T01:09:05.946Z,19.00
2023-05-14T01:11:44.522Z,19.00
2023-05-14T01:14:26.081Z,19.00
2023-05-14T01:16:58.489Z,19.00
2023-05-14T01:19:35.713Z,19.10
2023-05-14T01:22:02.925Z,19.10
2023-05-14T01:24:29.982Z,19.00
2023-05-14T01:27:10.988Z,19.00
2023-05-14T01:29:42.444Z,19.00
2023-05-14T01:32:10.768Z,19.00
2023-05-14T01:34:39.103Z,19.00
2023-05-14T01:37:07.567Z,18.90
2023-05-14T01:39:38.048Z,18.90
2023-05-14T01:42:06.911Z,18.90
2023-05-14T01:44:34.345Z,18.90
2023-05-14T01:47:01.579Z,18.90
2023-05-14T01:49:28.556Z,18.90
2023-05-14T01:51:55.569Z,18.90
2023-05-14T01:54:22.690Z,19.00
2023-05-14T01:56:50.234Z,19.10
2023-05-14T01:59:17.648Z,19.10
2023-05-14T02:01:44.817Z,19.10
2023-05-14T02:04:12.004Z,19.00
2023-05-14T02:06:42.283Z,19.00
2023-05-14T02:09:09.299Z,19.10
2023-05-14T02:11:36.334Z,19.10
2023-05-14T02:14:03.368Z,19.10
2023-05-14T02:16:30.516Z,19.00
2023-05-14T02:18:57.666Z,19.00
2023-05-14T02:21:24.757Z,19.00
2023-05-14T02:23:51.977Z,18.90
2023-05-14T02:26:18.931Z,18.90
2023-05-14T02:28:45.990Z,19.00
2023-05-14T02:31:13.487Z,18.90
2023-05-14T02:33:42.435Z,18.90
2023-05-14T02:36:09.592Z,18.90
2023-05-14T02:38:36.630Z,18.80
2023-05-14T02:41:03.595Z,18.80
2023-05-14T02:43:30.539Z,18.80
2023-05-14T02:45:57.575Z,18.80
2023-05-14T02:48:24.545Z,18.80
2023-05-14T02:50:52.194Z,18.90
2023-05-14T02:53:19.269Z,18.90
2023-05-14T02:55:46.318Z,18.90
2023-05-14T02:58:13.391Z,18.90
2023-05-14T03:00:40.534Z,18.90
2023-05-14T03:03:08.250Z,18.80
2023-05-14T03:05:35.757Z,19.00
2023-05-14T03:08:02.878Z,19.00
2023-05-14T03:10:29.890Z,18.90
2023-05-14T03:12:56.889Z,18.80
2023-05-14T03:15:24.076Z,18.80
2023-05-14T03:17:51.795Z,18.80
2023-05-14T03:20:18.770Z,18.80
2023-05-14T03:22:46.364Z,18.80
2023-05-14T03:25:14.482Z,18.70
2023-05-14T03:27:41.624Z,18.80
2023-05-14T03:30:08.993Z,18.70
2023-05-14T03:32:37.587Z,18.70
2023-05-14T03:35:05.027Z,18.70
2023-05-14T03:37:32.723Z,18.80
2023-05-14T03:39:59.698Z,18.80
2023-05-14T03:42:27.208Z,18.80
2023-05-14T03:44:54.225Z,18.80
2023-05-14T03:47:21.261Z,18.80
2023-05-14T03:49:48.229Z,18.80
2023-05-14T03:52:15.910Z,18.80
2023-05-14T03:54:44.620Z,18.80
2023-05-14T03:57:11.606Z,18.80
2023-05-14T03:59:38.559Z,18.70
2023-05-14T04:02:06.149Z,18.70
2023-05-14T04:04:33.370Z,18.80
2023-05-14T04:07:02.430Z,18.80
2023-05-14T04:09:29.446Z,18.80
2023-05-14T04:11:57.328Z,18.80
2023-05-14T04:14:24.634Z,18.80
2023-05-14T04:16:51.634Z,18.80
2023-05-14T04:19:18.741Z,18.80
2023-05-14T04:21:45.906Z,18.90
2023-05-14T04:24:12.834Z,19.00
2023-05-14T04:26:39.846Z,18.90
2023-05-14T04:29:06.858Z,18.80
2023-05-14T04:31:33.928Z,18.70
2023-05-14T04:34:00.926Z,18.80
2023-05-14T04:36:27.911Z,18.80
2023-05-14T04:38:54.838Z,18.70
2023-05-14T04:41:21.914Z,18.70
2023-05-14T04:43:50.891Z,18.70
2023-05-14T04:46:18.035Z,18.70
2023-05-14T04:48:45.088Z,18.60
2023-05-14T04:51:12.115Z,18.50
2023-05-14T04:53:39.189Z,18.50
2023-05-14T04:56:06.625Z,18.60
2023-05-14T04:58:35.099Z,18.60
2023-05-14T05:01:05.069Z,18.70
2023-05-14T05:03:32.416Z,18.70
2023-05-14T05:05:59.589Z,18.70
2023-05-14T05:08:26.788Z,18.70
2023-05-14T05:10:53.742Z,18.70
2023-05-14T05:13:20.683Z,18.70
2023-05-14T05:15:47.779Z,18.60
2023-05-14T05:18:14.870Z,18.70
2023-05-14T05:20:41.796Z,18.70
2023-05-14T05:23:08.982Z,18.70
2023-05-14T05:25:36.189Z,18.60
2023-05-14T05:28:03.132Z,18.60
2023-05-14T05:30:30.373Z,18.50
2023-05-14T05:32:57.771Z,18.50
2023-05-14T05:35:25.106Z,18.50
2023-05-14T05:37:52.094Z,18.60
2023-05-14T05:40:19.300Z,18.50
2023-05-14T05:42:46.252Z,18.50
2023-05-14T05:45:13.357Z,18.50
2023-05-14T05:47:40.910Z,18.60
2023-05-14T05:50:09.810Z,18.70
2023-05-14T05:52:36.925Z,18.70
2023-05-14T05:55:04.064Z,18.70
2023-05-14T05:57:30.999Z,18.70
2023-05-14T05:59:58.156Z,18.60
2023-05-14T06:02:25.443Z,18.70
2023-05-14T06:04:53.273Z,18.90
2023-05-14T06:07:20.291Z,18.90
2023-05-14T06:09:47.301Z,18.80
2023-05-14T06:12:14.256Z,18.80
2023-05-14T06:14:41.484Z,18.80
2023-05-14T06:17:08.667Z,18.80
2023-05-14T06:19:35.695Z,18.90
2023-05-14T06:22:03.204Z,19.00
2023-05-14T06:24:30.210Z,19.00
2023-05-14T06:26:57.289Z,18.90
2023-05-14T06:29:25.069Z,18.90
2023-05-14T06:31:52.321Z,18.90
2023-05-14T06:34:19.373Z,18.80
2023-05-14T06:36:46.474Z,18.80
2023-05-14T06:39:13.726Z,18.80
2023-05-14T06:41:40.686Z,18.90
2023-05-14T06:44:14.242Z,18.90
2023-05-14T06:46:41.327Z,19.00
2023-05-14T06:49:08.505Z,19.10
2023-05-14T06:51:35.599Z,19.10
2023-05-14T06:54:02.621Z,19.10
2023-05-14T06:56:29.566Z,19.20
2023-05-14T06:58:56.500Z,19.10
2023-05-14T07:01:23.976Z,19.00
2023-05-14T07:03:51.029Z,19.00
2023-05-14T07:06:18.109Z,18.90
2023-05-14T07:08:47.766Z,18.80
2023-05-14T07:11:15.305Z,18.90
2023-05-14T07:13:43.696Z,19.00
2023-05-14T07:16:10.983Z,18.90
2023-05-14T07:18:38.338Z,19.10
2023-05-14T07:21:06.606Z,19.10
2023-05-14T07:23:36.267Z,19.10
2023-05-14T07:26:06.946Z,19.20
2023-05-14T07:28:34.656Z,19.20
2023-05-14T07:31:01.890Z,19.30
2023-05-14T07:33:28.960Z,19.30
2023-05-14T07:35:55.941Z,19.20
2023-05-14T07:38:23.051Z,19.10
2023-05-14T07:40:50.009Z,19.00
2023-05-14T07:43:17.225Z,19.00
2023-05-14T07:45:44.524Z,19.10
2023-05-14T07:48:11.743Z,19.00
2023-05-14T07:50:39.005Z,19.00
2023-05-14T07:53:06.409Z,19.10
2023-05-14T07:55:33.458Z,19.20
2023-05-14T07:58:00.469Z,19.30
2023-05-14T08:00:27.804Z,19.20
2023-05-14T08:02:56.117Z,19.20
2023-05-14T08:05:23.310Z,19.30
2023-05-14T08:07:50.385Z,19.30
2023-05-14T08:10:17.408Z,19.20
2023-05-14T08:12:44.457Z,19.20
2023-05-14T08:15:12.215Z,19.20
2023-05-14T08:17:39.269Z,19.20
2023-05-14T08:20:07.579Z,19.10
2023-05-14T08:22:34.576Z,19.10
2023-05-14T08:25:03.715Z,19.10
2023-05-14T08:27:30.663Z,19.10
2023-05-14T08:29:57.708Z,19.20
2023-05-14T08:32:24.869Z,19.10
2023-05-14T08:34:52.502Z,19.20
2023-05-14T08:37:19.637Z,19.20
2023-05-14T08:39:46.868Z,19.20
2023-05-14T08:42:15.762Z,19.20
2023-05-14T08:45:03.731Z,19.20
2023-05-14T08:47:31.258Z,19.20
2023-05-14T08:50:07.411Z,19.20
2023-05-14T08:52:35.712Z,19.30
2023-05-14T08:55:06.842Z,19.20
2023-05-14T08:57:34.516Z,19.20
2023-05-14T09:00:13.387Z,19.30
2023-05-14T09:02:41.854Z,19.30
2023-05-14T09:05:09.389Z,19.30
2023-05-14T09:07:36.714Z,19.30
2023-05-14T09:10:04.635Z,19.40
2023-05-14T09:12:31.711Z,19.40
2023-05-14T09:14:58.691Z,19.30
2023-05-14T09:17:27.907Z,19.30
2023-05-14T09:19:55.930Z,19.30
2023-05-14T09:22:22.929Z,19.30
2023-05-14T09:25:11.018Z,19.30
2023-05-14T09:27:38.740Z,19.30
2023-05-14T09:30:10.547Z,19.30
2023-05-14T09:32:39.497Z,19.60
2023-05-14T09:35:25.423Z,19.70
2023-05-14T09:37:53.966Z,19.60
2023-05-14T09:40:24.368Z,19.60
2023-05-14T09:42:51.856Z,19.60
2023-05-14T09:45:18.993Z,19.50
2023-05-14T09:47:46.211Z,19.50
2023-05-14T09:50:13.491Z,19.50
2023-05-14T09:52:40.545Z,19.60
2023-05-14T09:55:08.429Z,19.60
2023-05-14T09:57:35.863Z,19.60
2023-05-14T10:00:03.073Z,19.70
2023-05-14T10:02:38.081Z,19.70
2023-05-14T10:05:06.925Z,19.80
2023-05-14T10:07:44.479Z,19.80
2023-05-14T10:10:16.465Z,19.80
2023-05-14T10:12:47.960Z,19.90
2023-05-14T10:15:23.771Z,19.90
2023-05-14T10:17:57.103Z,20.00
2023-05-14T10:20:25.283Z,20.00
2023-05-14T10:22:52.536Z,20.00
2023-05-14T10:25:19.713Z,20.10
2023-05-14T10:27:46.770Z,20.10
2023-05-14T10:30:13.958Z,20.20
2023-05-14T10:32:42.097Z,20.10
2023-05-14T10:35:25.465Z,20.10
2023-05-14T10:37:52.509Z,20.20
2023-05-14T10:40:20.678Z,20.20
2023-05-14T10:42:47.945Z,20.20
2023-05-14T10:45:16.226Z,20.20
2023-05-14T10:47:46.176Z,20.20
2023-05-14T10:50:15.119Z,20.30
2023-05-14T10:52:43.617Z,20.30
2023-05-14T10:55:14.309Z,20.30
2023-05-14T10:57:44.230Z,20.30
2023-05-14T11:00:12.668Z,20.30
2023-05-14T11:02:42.186Z,20.30
2023-05-14T11:05:17.723Z,20.30
2023-05-14T11:07:46.979Z,20.40
2023-05-14T11:10:19.144Z,20.40
2023-05-14T11:12:48.644Z,20.40
2023-05-14T11:15:20.875Z,20.40
2023-05-14T11:17:49.533Z,20.50
2023-05-14T11:20:17.772Z,20.50
2023-05-14T11:22:46.516Z,20.50
2023-05-14T11:25:14.804Z,20.50
2023-05-14T11:27:45.127Z,20.50
2023-05-14T11:30:17.066Z,20.40
2023-05-14T11:32:46.453Z,20.40
2023-05-14T11:35:14.254Z,20.50
2023-05-14T11:37:41.488Z,20.40
2023-05-14T11:40:14.329Z,20.40
2023-05-14T11:42:41.812Z,20.50
2023-05-14T11:45:12.427Z,20.50
2023-05-14T11:47:41.365Z,20.50
2023-05-14T11:50:09.566Z,20.50
2023-05-14T11:52:43.288Z,20.50
2023-05-14T11:55:13.365Z,20.60
2023-05-14T11:57:41.244Z,20.60
2023-05-14T12:00:11.240Z,20.60
2023-05-14T12:02:38.661Z,20.60
2023-05-14T12:05:12.344Z,20.50
2023-05-14T12:07:39.773Z,20.50
2023-05-14T12:10:07.315Z,20.60
2023-05-14T12:12:37.753Z,20.60
2023-05-14T12:15:13.344Z,20.70
2023-05-14T12:17:40.692Z,20.70
2023-05-14T12:20:12.483Z,20.70
2023-05-14T12:22:42.636Z,20.70
2023-05-14T12:25:13.787Z,20.70
2023-05-14T12:27:41.516Z,20.70
2023-05-14T12:32:41.099Z,20.80
2023-05-14T12:35:08.964Z,20.80
2023-05-14T12:37:37.489Z,20.80
2023-05-14T12:40:09.269Z,20.80
2023-05-14T12:42:36.771Z,20.80
2023-05-14T12:45:07.473Z,20.80
2023-05-14T12:47:35.020Z,20.80
2023-05-14T12:50:02.643Z,20.70
2023-05-14T12:54:59.742Z,20.80
2023-05-14T12:57:27.770Z,20.80
2023-05-14T12:59:55.527Z,20.80
2023-05-14T13:02:22.621Z,20.90
2023-05-14T13:04:49.595Z,20.90
2023-05-14T13:07:16.547Z,20.80
2023-05-14T13:09:43.529Z,20.90
2023-05-14T13:12:10.545Z,20.90
2023-05-14T13:14:37.716Z,20.90
2023-05-14T13:17:05.554Z,20.90
2023-05-14T13:19:32.678Z,20.90
2023-05-14T13:21:59.613Z,20.90
2023-05-14T13:24:26.652Z,20.90
2023-05-14T13:26:53.637Z,21.00
2023-05-14T13:29:20.683Z,21.00
2023-05-14T13:31:48.005Z,21.00
2023-05-14T13:34:15.017Z,20.90
2023-05-14T13:36:43.617Z,20.90
2023-05-14T13:39:14.636Z,20.90
2023-05-14T13:41:42.078Z,20.90
2023-05-14T13:44:09.049Z,20.90
2023-05-14T13:46:36.058Z,20.90
2023-05-14T13:49:04.416Z,21.00
2023-05-14T13:51:31.389Z,20.90
2023-05-14T13:53:58.365Z,20.90
2023-05-14T13:56:25.968Z,21.00
2023-05-14T13:58:53.071Z,21.00
2023-05-14T14:01:20.171Z,21.00
2023-05-14T14:03:47.168Z,21.00
2023-05-14T14:06:14.124Z,21.00
2023-05-14T14:08:41.042Z,20.90
2023-05-14T14:11:08.114Z,20.90
2023-05-14T14:13:35.036Z,20.90
2023-05-14T14:16:03.593Z,20.90
2023-05-14T14:18:30.643Z,20.90
2023-05-14T14:20:57.934Z,20.90
2023-05-14T14:23:24.974Z,20.90
2023-05-14T14:25:51.902Z,20.90
2023-05-14T14:28:19.133Z,20.80
2023-05-14T14:30:46.386Z,20.90
2023-05-14T14:33:13.516Z,20.90
2023-05-14T14:35:40.679Z,20.90
2023-05-14T14:38:11.043Z,21.00
2023-05-14T14:40:38.413Z,21.00
2023-05-14T14:43:05.430Z,21.00
2023-05-14T14:45:35.742Z,21.00
2023-05-14T14:48:25.172Z,21.00
2023-05-14T14:50:52.813Z,21.00
2023-05-14T14:53:21.019Z,21.00
2023-05-14T14:55:49.116Z,21.00
2023-05-14T14:58:16.818Z,21.00
2023-05-14T15:00:44.252Z,21.00
2023-05-14T15:03:11.607Z,21.00
2023-05-14T15:05:38.758Z,21.00
2023-05-14T15:08:06.107Z,21.00
2023-05-14T15:10:37.775Z,21.00
2023-05-14T15:13:06.497Z,21.00
2023-05-14T15:15:34.596Z,21.00
2023-05-14T15:18:02.444Z,20.90
2023-05-14T15:20:29.942Z,20.90
2023-05-14T15:22:57.194Z,21.00
2023-05-14T15:25:25.438Z,20.90
2023-05-14T15:27:52.652Z,20.90
2023-05-14T15:30:19.768Z,20.90
2023-05-14T15:32:47.230Z,20.90
2023-05-14T15:35:14.598Z,20.90
2023-05-14T15:37:43.810Z,20.90
2023-05-14T15:40:11.912Z,20.90
2023-05-14T15:42:43.846Z,20.80
2023-05-14T15:45:13.120Z,20.70
2023-05-14T15:47:41.315Z,20.80
2023-05-14T15:50:09.138Z,20.80
2023-05-14T15:52:36.590Z,20.70
2023-05-14T15:55:06.086Z,20.70
2023-05-14T15:57:33.525Z,20.80
2023-05-14T16:00:00.542Z,20.90
2023-05-14T16:02:30.456Z,20.90
2023-05-14T16:04:57.648Z,21.00
2023-05-14T16:07:24.618Z,21.00
2023-05-14T16:09:51.840Z,21.00
2023-05-14T16:12:19.196Z,21.00
2023-05-14T16:14:46.522Z,21.00
2023-05-14T16:17:13.750Z,21.00
2023-05-14T16:19:40.795Z,21.00
2023-05-14T16:22:07.768Z,21.00
2023-05-14T16:24:34.785Z,21.00
2023-05-14T16:27:01.798Z,21.00
2023-05-14T16:29:28.760Z,21.00
2023-05-14T16:31:56.008Z,21.00
2023-05-14T16:34:23.057Z,21.00
2023-05-14T16:36:50.074Z,21.00
2023-05-14T16:39:17.666Z,20.90
2023-05-14T16:41:44.823Z,21.00
2023-05-14T16:44:11.958Z,20.90
2023-05-14T16:46:41.686Z,20.90
2023-05-14T16:49:08.874Z,20.90
2023-05-14T16:51:37.318Z,20.90
2023-05-14T16:54:04.348Z,20.90
2023-05-14T16:56:32.429Z,21.00
2023-05-14T16:58:59.467Z,21.10
2023-05-14T17:01:26.458Z,21.10
2023-05-14T17:03:53.448Z,21.10
2023-05-14T17:06:20.656Z,21.00
2023-05-14T17:08:47.757Z,21.00
2023-05-14T17:11:14.685Z,21.00
2023-05-14T17:13:41.677Z,21.00
2023-05-14T17:16:08.641Z,21.00
2023-05-14T17:18:35.804Z,21.00
2023-05-14T17:21:04.802Z,21.00
2023-05-14T17:23:31.882Z,21.00
2023-05-14T17:25:58.933Z,20.90
2023-05-14T17:28:26.968Z,21.00
2023-05-14T17:30:54.103Z,21.00
2023-05-14T17:33:21.291Z,21.00
2023-05-14T17:35:48.822Z,21.00
2023-05-14T17:38:15.812Z,21.00
2023-05-14T17:40:42.911Z,21.00
2023-05-14T17:43:09.906Z,20.90
2023-05-14T17:45:52.483Z,20.90
2023-05-14T17:48:20.691Z,20.80
2023-05-14T17:50:47.862Z,20.80
2023-05-14T17:53:15.016Z,20.80
2023-05-14T17:55:43.679Z,20.70
2023-05-14T17:58:15.572Z,20.70
2023-05-14T18:00:43.508Z,20.70
2023-05-14T18:03:11.281Z,20.60
2023-05-14T18:05:38.432Z,20.60
2023-05-14T18:08:05.775Z,20.60
2023-05-14T18:10:32.888Z,20.50
2023-05-14T18:12:59.867Z,20.40
2023-05-14T18:15:27.492Z,20.40
2023-05-14T18:17:54.782Z,20.40
2023-05-14T18:20:21.887Z,20.50
2023-05-14T18:22:50.612Z,20.60
2023-05-14T18:25:18.077Z,20.60
2023-05-14T18:27:45.709Z,20.50
2023-05-14T18:30:14.929Z,20.60
2023-05-14T18:32:43.758Z,20.60
2023-05-14T18:35:11.919Z,20.60
2023-05-14T18:37:39.445Z,20.60
2023-05-14T18:40:07.082Z,20.50
2023-05-14T18:42:34.707Z,20.50
2023-05-14T18:45:01.786Z,20.50
2023-05-14T18:47:28.867Z,20.50
2023-05-14T18:49:58.965Z,20.50
2023-05-14T18:52:26.684Z,20.50
2023-05-14T18:54:54.868Z,20.50
2023-05-14T18:57:22.333Z,20.40
2023-05-14T18:59:49.369Z,20.40
2023-05-14T19:02:16.410Z,20.40
2023-05-14T19:04:52.278Z,20.40
2023-05-14T19:07:20.783Z,20.40
2023-05-14T19:09:47.818Z,20.30
2023-05-14T19:12:15.146Z,20.30
2023-05-14T19:14:42.150Z,20.30
2023-05-14T19:17:09.179Z,20.30
2023-05-14T19:19:36.552Z,20.30
2023-05-14T19:22:03.883Z,20.30
2023-05-14T19:24:30.937Z,20.20
2023-05-14T19:26:58.048Z,20.20
2023-05-14T19:29:25.054Z,20.20
2023-05-14T19:31:52.171Z,20.10
2023-05-14T19:34:19.154Z,20.10
2023-05-14T19:36:46.389Z,20.10
2023-05-14T19:39:13.478Z,20.10
2023-05-14T19:41:40.673Z,20.10
2023-05-14T19:44:07.995Z,20.00
2023-05-14T19:46:35.285Z,20.00
2023-05-14T19:49:02.203Z,20.00
2023-05-14T19:51:29.183Z,20.00
2023-05-14T19:53:56.137Z,19.90
2023-05-14T19:56:24.757Z,19.90
2023-05-14T19:58:53.550Z,19.90
2023-05-14T20:01:21.073Z,19.80
2023-05-14T20:03:48.572Z,19.80
2023-05-14T20:06:18.501Z,19.80
2023-05-14T20:08:45.750Z,19.80
2023-05-14T20:11:12.784Z,19.80
2023-05-14T20:13:39.800Z,19.80
2023-05-14T20:16:06.953Z,19.80
2023-05-14T20:18:34.147Z,19.80
2023-05-14T20:21:01.289Z,19.70
2023-05-14T20:23:28.418Z,19.70
2023-05-14T20:25:55.766Z,19.70
2023-05-14T20:28:22.803Z,19.70
2023-05-14T20:30:49.810Z,19.60
2023-05-14T20:33:17.000Z,19.60
2023-05-14T20:35:44.248Z,19.60
2023-05-14T20:38:12.730Z,19.60
2023-05-14T20:40:40.385Z,19.50
2023-05-14T20:43:07.880Z,19.50
2023-05-14T20:45:34.842Z,19.50
2023-05-14T20:48:02.124Z,19.50
2023-05-14T20:50:29.141Z,19.40
2023-05-14T20:52:56.136Z,19.40
2023-05-14T20:55:23.542Z,19.40
2023-05-14T20:57:50.810Z,19.40
2023-05-14T21:00:18.362Z,19.30
2023-05-14T21:02:45.486Z,19.30
2023-05-14T21:05:13.900Z,19.20
2023-05-14T21:07:41.033Z,19.10
2023-05-14T21:10:09.485Z,19.10
2023-05-14T21:12:36.709Z,19.00
2023-05-14T21:15:04.031Z,19.00
2023-05-14T21:17:31.372Z,18.90
2023-05-14T21:19:58.447Z,18.90
2023-05-14T21:22:26.601Z,18.80
2023-05-14T21:24:54.671Z,18.80
2023-05-14T21:27:22.465Z,18.80
2023-05-14T21:29:49.476Z,18.70
2023-05-14T21:32:16.532Z,18.70
2023-05-14T21:34:43.636Z,18.70
2023-05-14T21:37:10.692Z,18.70
2023-05-14T21:39:37.666Z,18.70
2023-05-14T21:42:04.944Z,18.70
2023-05-14T21:44:31.862Z,18.70
2023-05-14T21:46:59.578Z,18.70
2023-05-14T21:49:26.528Z,18.70
2023-05-14T21:51:54.626Z,18.70
2023-05-14T21:54:21.699Z,18.60
2023-05-14T21:56:48.840Z,18.60
2023-05-14T21:59:15.852Z,18.50
2023-05-14T22:04:13.205Z,18.50
2023-05-14T22:06:40.451Z,18.50
2023-05-14T22:09:07.525Z,18.50
2023-05-14T22:11:34.467Z,18.50
2023-05-14T22:14:01.503Z,18.50
2023-05-14T22:16:28.556Z,18.50
2023-05-14T22:18:55.682Z,18.40
2023-05-14T22:21:22.706Z,18.40
2023-05-14T22:23:50.362Z,18.40
2023-05-14T22:26:17.421Z,18.40
2023-05-14T22:28:44.482Z,18.40
2023-05-14T22:31:11.578Z,18.40
2023-05-14T22:33:38.611Z,18.30
2023-05-14T22:36:07.020Z,18.30
2023-05-14T22:38:34.645Z,18.30
2023-05-14T22:41:01.687Z,18.30
2023-05-14T22:43:28.939Z,18.30
2023-05-14T22:45:55.867Z,18.30
2023-05-14T22:48:22.851Z,18.30
2023-05-14T22:50:49.770Z,18.30
2023-05-14T22:53:16.750Z,18.30
2023-05-14T22:55:43.882Z,18.30
2023-05-14T22:58:11.264Z,18.20
2023-05-14T23:00:38.181Z,18.20
2023-05-14T23:03:05.194Z,18.20
2023-05-14T23:05:32.154Z,18.20
2023-05-14T23:07:59.401Z,18.10
2023-05-14T23:10:26.457Z,18.10
2023-05-14T23:12:53.433Z,18.10
2023-05-14T23:15:20.455Z,18.10
2023-05-14T23:17:47.497Z,18.10
2023-05-14T23:20:14.459Z,18.00
2023-05-14T23:22:41.394Z,18.10
2023-05-14T23:25:08.870Z,18.10
2023-05-14T23:27:35.908Z,18.00
2023-05-14T23:30:04.035Z,18.00
2023-05-14T23:32:31.120Z,18.00
2023-05-14T23:34:58.064Z,17.90
2023-05-14T23:37:25.076Z,17.90
2023-05-14T23:39:52.130Z,17.90
2023-05-14T23:42:19.123Z,17.90
2023-05-14T23:44:46.115Z,17.90
2023-05-14T23:47:13.104Z,17.90
2023-05-14T23:49:40.821Z,17.90
2023-05-14T23:52:08.135Z,17.80
2023-05-14T23:54:35.113Z,17.80
2023-05-14T23:57:04.152Z,17.80
2023-05-14T23:59:31.273Z,17.80
